sensor_id;sensor_type;location;lat;lon;timestamp;pressure;altitude;pressure_sealevel;temperature;humidity
56600;BME280;51832;48.152;11.530;2023-03-15T00:00:10;94741.25;;;7.58;66.56
56600;BME280;51832;48.152;11.530;2023-03-15T00:05:11;94741.50;;;7.87;65.78
56600;BME280;51832;48.152;11.530;2023-03-15T00:10:12;94737.13;;;7.51;66.14
56600;BME280;51832;48.152;11.530;2023-03-15T00:15:13;94749.59;;;7.67;66.47
56600;BME280;51832;48.152;11.530;2023-03-15T00:20:14;94747.81;;;7.31;68.82
56600;BME280;51832;48.152;11.530;2023-03-15T00:25:15;94757.25;;;7.13;69.88
56600;BME280;51832;48.152;11.530;2023-03-15T00:30:16;94770.44;;;6.82;71.48
56600;BME280;51832;48.152;11.530;2023-03-15T00:35:16;94777.84;;;6.29;75.05
56600;BME280;51832;48.152;11.530;2023-03-15T00:40:17;94753.91;;;6.07;76.12
56600;BME280;51832;48.152;11.530;2023-03-15T00:45:19;94769.94;;;6.42;75.25
56600;BME280;51832;48.152;11.530;2023-03-15T00:50:21;94794.13;;;5.99;78.10
56600;BME280;51832;48.152;11.530;2023-03-15T00:55:21;94813.25;;;5.87;77.78
56600;BME280;51832;48.152;11.530;2023-03-15T01:00:22;94834.72;;;4.32;81.26
56600;BME280;51832;48.152;11.530;2023-03-15T01:05:24;94837.69;;;4.09;82.99
56600;BME280;51832;48.152;11.530;2023-03-15T01:10:25;94822.25;;;4.14;82.51
56600;BME280;51832;48.152;11.530;2023-03-15T01:15:25;94824.84;;;4.14;83.04
56600;BME280;51832;48.152;11.530;2023-03-15T01:20:26;94806.25;;;4.17;81.99
56600;BME280;51832;48.152;11.530;2023-03-15T01:25:26;94793.00;;;4.12;83.19
56600;BME280;51832;48.152;11.530;2023-03-15T01:30:27;94796.66;;;4.57;81.60
56600;BME280;51832;48.152;11.530;2023-03-15T01:35:27;94767.59;;;4.74;80.44
56600;BME280;51832;48.152;11.530;2023-03-15T01:40:27;94774.59;;;4.27;82.99
56600;BME280;51832;48.152;11.530;2023-03-15T01:56:36;94795.66;;;4.58;82.02
56600;BME280;51832;48.152;11.530;2023-03-15T02:01:38;94814.69;;;4.39;82.00
56600;BME280;51832;48.152;11.530;2023-03-15T02:06:45;94824.72;;;4.36;83.70
56600;BME280;51832;48.152;11.530;2023-03-15T02:11:46;94829.94;;;4.69;82.23
56600;BME280;51832;48.152;11.530;2023-03-15T02:16:47;94817.03;;;4.14;84.20
56600;BME280;51832;48.152;11.530;2023-03-15T02:22:04;94830.28;;;4.26;83.92
56600;BME280;51832;48.152;11.530;2023-03-15T02:27:11;94852.38;;;4.50;83.46
56600;BME280;51832;48.152;11.530;2023-03-15T02:32:11;94850.66;;;3.96;84.53
56600;BME280;51832;48.152;11.530;2023-03-15T02:37:12;94864.81;;;4.68;81.57
56600;BME280;51832;48.152;11.530;2023-03-15T02:42:13;94856.41;;;4.85;81.00
56600;BME280;51832;48.152;11.530;2023-03-15T02:47:20;94890.28;;;3.98;84.95
56600;BME280;51832;48.152;11.530;2023-03-15T02:52:23;94916.59;;;4.10;84.62
56600;BME280;51832;48.152;11.530;2023-03-15T02:57:23;94942.34;;;3.98;83.44
56600;BME280;51832;48.152;11.530;2023-03-15T03:02:23;94967.09;;;3.81;84.36
56600;BME280;51832;48.152;11.530;2023-03-15T03:07:24;94987.03;;;3.67;85.02
56600;BME280;51832;48.152;11.530;2023-03-15T03:12:24;95003.09;;;4.12;82.55
56600;BME280;51832;48.152;11.530;2023-03-15T03:17:25;95020.84;;;3.95;83.19
56600;BME280;51832;48.152;11.530;2023-03-15T03:22:25;95062.19;;;3.83;83.61
56600;BME280;51832;48.152;11.530;2023-03-15T03:27:25;95055.75;;;3.79;83.43
56600;BME280;51832;48.152;11.530;2023-03-15T03:32:26;95076.84;;;3.91;82.49
56600;BME280;51832;48.152;11.530;2023-03-15T03:37:26;95091.06;;;3.88;81.97
56600;BME280;51832;48.152;11.530;2023-03-15T03:42:27;95107.81;;;3.58;82.25
56600;BME280;51832;48.152;11.530;2023-03-15T03:47:27;95127.13;;;3.70;82.10
56600;BME280;51832;48.152;11.530;2023-03-15T03:52:27;95141.44;;;3.60;81.60
56600;BME280;51832;48.152;11.530;2023-03-15T03:57:28;95154.72;;;3.65;80.68
56600;BME280;51832;48.152;11.530;2023-03-15T04:02:28;95173.28;;;3.83;80.69
56600;BME280;51832;48.152;11.530;2023-03-15T04:07:29;95171.28;;;4.06;80.08
56600;BME280;51832;48.152;11.530;2023-03-15T04:12:29;95193.91;;;3.84;81.12
56600;BME280;51832;48.152;11.530;2023-03-15T04:17:30;95205.13;;;3.64;82.29
56600;BME280;51832;48.152;11.530;2023-03-15T04:22:30;95208.91;;;3.61;81.79
56600;BME280;51832;48.152;11.530;2023-03-15T04:27:31;95221.00;;;4.39;87.37
56600;BME280;51832;48.152;11.530;2023-03-15T04:32:31;95228.94;;;5.21;79.84
56600;BME280;51832;48.152;11.530;2023-03-15T04:37:31;95243.31;;;5.52;78.55
56600;BME280;51832;48.152;11.530;2023-03-15T04:42:32;95270.78;;;4.72;74.17
56600;BME280;51832;48.152;11.530;2023-03-15T04:47:33;95263.91;;;4.37;76.52
56600;BME280;51832;48.152;11.530;2023-03-15T04:52:33;95279.88;;;4.12;77.10
56600;BME280;51832;48.152;11.530;2023-03-15T04:57:34;95297.38;;;3.46;79.22
56600;BME280;51832;48.152;11.530;2023-03-15T05:02:35;95299.78;;;3.63;79.72
56600;BME280;51832;48.152;11.530;2023-03-15T05:07:39;95311.81;;;3.19;81.13
56600;BME280;51832;48.152;11.530;2023-03-15T05:12:39;95313.78;;;3.47;80.58
56600;BME280;51832;48.152;11.530;2023-03-15T05:17:40;95322.56;;;3.46;79.95
56600;BME280;51832;48.152;11.530;2023-03-15T05:22:40;95334.31;;;2.98;81.90
56600;BME280;51832;48.152;11.530;2023-03-15T05:27:41;95337.91;;;2.97;82.49
56600;BME280;51832;48.152;11.530;2023-03-15T05:32:45;95351.94;;;2.88;82.12
56600;BME280;51832;48.152;11.530;2023-03-15T05:37:45;95360.16;;;3.14;81.75
56600;BME280;51832;48.152;11.530;2023-03-15T05:42:46;95372.22;;;2.92;82.82
56600;BME280;51832;48.152;11.530;2023-03-15T05:47:46;95374.09;;;2.83;82.07
56600;BME280;51832;48.152;11.530;2023-03-15T05:52:49;95384.00;;;3.32;80.56
56600;BME280;51832;48.152;11.530;2023-03-15T05:57:49;95392.00;;;3.31;79.37
56600;BME280;51832;48.152;11.530;2023-03-15T06:02:50;95413.88;;;3.36;79.43
56600;BME280;51832;48.152;11.530;2023-03-15T06:07:51;95421.84;;;3.20;79.35
56600;BME280;51832;48.152;11.530;2023-03-15T06:12:51;95423.59;;;3.05;80.76
56600;BME280;51832;48.152;11.530;2023-03-15T06:17:52;95443.88;;;3.09;80.06
56600;BME280;51832;48.152;11.530;2023-03-15T06:22:52;95445.22;;;3.20;79.66
56600;BME280;51832;48.152;11.530;2023-03-15T06:27:52;95443.47;;;3.35;79.05
56600;BME280;51832;48.152;11.530;2023-03-15T06:32:54;95445.94;;;3.66;77.58
56600;BME280;51832;48.152;11.530;2023-03-15T06:37:54;95452.38;;;3.41;78.28
56600;BME280;51832;48.152;11.530;2023-03-15T06:42:55;95459.25;;;3.34;78.36
56600;BME280;51832;48.152;11.530;2023-03-15T06:47:55;95470.34;;;3.13;78.43
56600;BME280;51832;48.152;11.530;2023-03-15T06:52:56;95470.94;;;3.97;76.24
56600;BME280;51832;48.152;11.530;2023-03-15T06:57:57;95480.31;;;4.06;75.92
56600;BME280;51832;48.152;11.530;2023-03-15T07:02:57;95481.53;;;4.24;74.40
56600;BME280;51832;48.152;11.530;2023-03-15T07:07:58;95482.00;;;3.99;74.85
56600;BME280;51832;48.152;11.530;2023-03-15T07:12:58;95482.88;;;4.92;71.60
56600;BME280;51832;48.152;11.530;2023-03-15T07:17:59;95488.59;;;4.45;73.11
56600;BME280;51832;48.152;11.530;2023-03-15T07:23:00;95491.72;;;4.55;72.25
56600;BME280;51832;48.152;11.530;2023-03-15T07:28:00;95509.25;;;4.83;72.15
56600;BME280;51832;48.152;11.530;2023-03-15T07:33:01;95513.03;;;4.59;72.13
56600;BME280;51832;48.152;11.530;2023-03-15T07:38:01;95513.44;;;4.77;70.57
56600;BME280;51832;48.152;11.530;2023-03-15T07:43:01;95516.19;;;4.25;71.78
56600;BME280;51832;48.152;11.530;2023-03-15T07:48:02;95526.19;;;4.36;71.70
56600;BME280;51832;48.152;11.530;2023-03-15T07:53:03;95518.69;;;4.84;70.25
56600;BME280;51832;48.152;11.530;2023-03-15T07:58:04;95519.19;;;4.22;70.28
56600;BME280;51832;48.152;11.530;2023-03-15T08:03:05;95521.94;;;5.50;66.76
56600;BME280;51832;48.152;11.530;2023-03-15T08:08:06;95506.38;;;5.14;68.14
56600;BME280;51832;48.152;11.530;2023-03-15T08:13:06;95516.34;;;5.81;67.09
56600;BME280;51832;48.152;11.530;2023-03-15T08:18:07;95523.13;;;5.75;66.32
56600;BME280;51832;48.152;11.530;2023-03-15T08:23:07;95505.63;;;6.25;65.00
56600;BME280;51832;48.152;11.530;2023-03-15T08:28:08;95519.78;;;5.81;64.91
56600;BME280;51832;48.152;11.530;2023-03-15T08:33:09;95513.41;;;5.62;65.35
56600;BME280;51832;48.152;11.530;2023-03-15T08:38:11;95514.09;;;5.50;64.42
56600;BME280;51832;48.152;11.530;2023-03-15T08:43:12;95524.00;;;4.90;64.34
56600;BME280;51832;48.152;11.530;2023-03-15T08:48:12;95519.09;;;5.45;62.51
56600;BME280;51832;48.152;11.530;2023-03-15T08:53:13;95523.44;;;5.38;61.30
56600;BME280;51832;48.152;11.530;2023-03-15T08:58:14;95504.38;;;5.37;58.78
56600;BME280;51832;48.152;11.530;2023-03-15T09:03:14;95510.66;;;5.43;58.63
56600;BME280;51832;48.152;11.530;2023-03-15T09:08:15;95513.69;;;5.74;57.31
56600;BME280;51832;48.152;11.530;2023-03-15T09:13:20;95510.09;;;5.26;56.40
56600;BME280;51832;48.152;11.530;2023-03-15T09:18:21;95508.88;;;5.50;56.20
56600;BME280;51832;48.152;11.530;2023-03-15T09:23:22;95518.72;;;5.97;56.31
56600;BME280;51832;48.152;11.530;2023-03-15T09:28:22;95510.72;;;6.05;54.86
56600;BME280;51832;48.152;11.530;2023-03-15T09:33:24;95523.44;;;5.87;53.37
56600;BME280;51832;48.152;11.530;2023-03-15T09:38:26;95514.66;;;6.29;52.36
56600;BME280;51832;48.152;11.530;2023-03-15T09:44:19;95529.91;;;5.91;54.40
56600;BME280;51832;48.152;11.530;2023-03-15T09:49:18;95532.38;;;6.33;54.79
56600;BME280;51832;48.152;11.530;2023-03-15T09:54:27;95529.88;;;6.12;54.68
56600;BME280;51832;48.152;11.530;2023-03-15T09:59:34;95539.25;;;6.06;52.56
56600;BME280;51832;48.152;11.530;2023-03-15T10:04:35;95559.31;;;5.78;52.15
56600;BME280;51832;48.152;11.530;2023-03-15T10:09:39;95546.38;;;6.19;51.39
56600;BME280;51832;48.152;11.530;2023-03-15T10:15:01;95548.16;;;7.01;50.63
56600;BME280;51832;48.152;11.530;2023-03-15T10:20:18;95546.19;;;6.55;50.11
56600;BME280;51832;48.152;11.530;2023-03-15T10:25:29;95554.84;;;5.93;48.89
56600;BME280;51832;48.152;11.530;2023-03-15T10:30:33;95538.78;;;6.72;48.19
56600;BME280;51832;48.152;11.530;2023-03-15T10:35:34;95539.88;;;6.09;48.65
56600;BME280;51832;48.152;11.530;2023-03-15T10:46:20;95535.09;;;7.07;48.70
56600;BME280;51832;48.152;11.530;2023-03-15T10:51:32;95540.50;;;6.99;48.03
56600;BME280;51832;48.152;11.530;2023-03-15T10:57:02;95529.19;;;6.86;47.86
56600;BME280;51832;48.152;11.530;2023-03-15T11:07:11;95540.31;;;7.07;45.37
56600;BME280;51832;48.152;11.530;2023-03-15T11:12:21;95512.81;;;7.71;43.09
56600;BME280;51832;48.152;11.530;2023-03-15T11:17:48;95508.16;;;7.93;43.78
56600;BME280;51832;48.152;11.530;2023-03-15T11:22:49;95529.09;;;7.27;43.26
56600;BME280;51832;48.152;11.530;2023-03-15T11:27:51;95532.91;;;7.18;42.65
56600;BME280;51832;48.152;11.530;2023-03-15T11:32:53;95515.63;;;7.49;40.24
56600;BME280;51832;48.152;11.530;2023-03-15T11:38:09;95523.84;;;7.20;39.31
56600;BME280;51832;48.152;11.530;2023-03-15T11:43:17;95506.09;;;7.02;38.30
56600;BME280;51832;48.152;11.530;2023-03-15T11:48:42;95498.91;;;7.57;37.17
56600;BME280;51832;48.152;11.530;2023-03-15T11:54:13;95496.06;;;7.85;37.30
56600;BME280;51832;48.152;11.530;2023-03-15T11:59:28;95499.47;;;8.18;35.33
56600;BME280;51832;48.152;11.530;2023-03-15T12:14:36;95470.81;;;8.81;36.38
56600;BME280;51832;48.152;11.530;2023-03-15T12:19:36;95465.00;;;7.95;36.66
56600;BME280;51832;48.152;11.530;2023-03-15T12:24:37;95486.53;;;8.30;37.36
56600;BME280;51832;48.152;11.530;2023-03-15T12:29:38;95468.38;;;8.29;35.99
56600;BME280;51832;48.152;11.530;2023-03-15T12:55:44;95436.25;;;9.16;35.48
56600;BME280;51832;48.152;11.530;2023-03-15T13:00:45;95457.88;;;8.80;36.12
56600;BME280;51832;48.152;11.530;2023-03-15T13:06:03;95450.72;;;9.00;34.85
56600;BME280;51832;48.152;11.530;2023-03-15T13:16:52;95446.94;;;8.51;36.29
56600;BME280;51832;48.152;11.530;2023-03-15T13:32:22;95447.72;;;9.28;35.76
56600;BME280;51832;48.152;11.530;2023-03-15T13:37:24;95468.66;;;9.03;36.58
56600;BME280;51832;48.152;11.530;2023-03-15T13:42:31;95459.63;;;8.93;36.53
56600;BME280;51832;48.152;11.530;2023-03-15T13:47:33;95446.75;;;8.46;36.18
56600;BME280;51832;48.152;11.530;2023-03-15T13:52:33;95457.06;;;8.28;37.44
56600;BME280;51832;48.152;11.530;2023-03-15T13:57:35;95451.06;;;8.72;36.93
56600;BME280;51832;48.152;11.530;2023-03-15T14:07:47;95461.66;;;8.90;36.67
56600;BME280;51832;48.152;11.530;2023-03-15T14:12:50;95452.78;;;9.23;36.39
56600;BME280;51832;48.152;11.530;2023-03-15T14:23:05;95455.84;;;8.44;37.75
56600;BME280;51832;48.152;11.530;2023-03-15T14:28:14;95467.16;;;8.38;39.69
56600;BME280;51832;48.152;11.530;2023-03-15T14:33:42;95472.00;;;8.34;40.08
56600;BME280;51832;48.152;11.530;2023-03-15T14:38:52;95470.78;;;8.43;40.26
56600;BME280;51832;48.152;11.530;2023-03-15T14:43:53;95471.53;;;8.57;39.58
56600;BME280;51832;48.152;11.530;2023-03-15T14:48:53;95456.94;;;8.74;38.84
56600;BME280;51832;48.152;11.530;2023-03-15T14:53:55;95461.75;;;8.06;41.23
56600;BME280;51832;48.152;11.530;2023-03-15T14:58:56;95462.31;;;8.35;38.71
56600;BME280;51832;48.152;11.530;2023-03-15T15:03:59;95465.53;;;8.30;39.46
56600;BME280;51832;48.152;11.530;2023-03-15T15:09:01;95464.66;;;9.01;38.50
56600;BME280;51832;48.152;11.530;2023-03-15T15:14:02;95461.28;;;8.87;38.14
56600;BME280;51832;48.152;11.530;2023-03-15T15:19:02;95465.09;;;8.91;38.86
56600;BME280;51832;48.152;11.530;2023-03-15T15:24:10;95463.72;;;9.45;37.52
56600;BME280;51832;48.152;11.530;2023-03-15T15:29:13;95469.16;;;8.36;37.96
56600;BME280;51832;48.152;11.530;2023-03-15T15:34:14;95466.28;;;8.95;37.82
56600;BME280;51832;48.152;11.530;2023-03-15T15:39:20;95470.19;;;8.86;37.68
56600;BME280;51832;48.152;11.530;2023-03-15T15:44:22;95473.22;;;8.83;37.69
56600;BME280;51832;48.152;11.530;2023-03-15T15:49:25;95481.91;;;8.77;37.22
56600;BME280;51832;48.152;11.530;2023-03-15T15:54:27;95478.25;;;8.40;37.76
56600;BME280;51832;48.152;11.530;2023-03-15T15:59:29;95497.59;;;8.39;38.31
56600;BME280;51832;48.152;11.530;2023-03-15T16:04:30;95517.75;;;8.45;39.12
56600;BME280;51832;48.152;11.530;2023-03-15T16:09:32;95520.50;;;9.14;41.81
56600;BME280;51832;48.152;11.530;2023-03-15T16:14:36;95514.72;;;8.48;46.85
56600;BME280;51832;48.152;11.530;2023-03-15T16:19:37;95521.25;;;7.99;49.95
56600;BME280;51832;48.152;11.530;2023-03-15T16:24:38;95539.59;;;7.79;52.25
56600;BME280;51832;48.152;11.530;2023-03-15T16:29:44;95554.50;;;7.99;52.59
56600;BME280;51832;48.152;11.530;2023-03-15T16:34:49;95547.84;;;7.96;53.39
56600;BME280;51832;48.152;11.530;2023-03-15T16:39:52;95561.31;;;8.26;53.02
56600;BME280;51832;48.152;11.530;2023-03-15T16:44:54;95563.03;;;8.78;52.62
56600;BME280;51832;48.152;11.530;2023-03-15T16:49:55;95572.22;;;8.36;51.82
56600;BME280;51832;48.152;11.530;2023-03-15T16:54:55;95559.44;;;8.73;51.47
56600;BME280;51832;48.152;11.530;2023-03-15T16:59:56;95574.44;;;8.39;51.79
56600;BME280;51832;48.152;11.530;2023-03-15T17:04:56;95585.50;;;8.54;51.25
56600;BME280;51832;48.152;11.530;2023-03-15T17:09:58;95597.38;;;8.70;51.10
56600;BME280;51832;48.152;11.530;2023-03-15T17:15:01;95607.06;;;8.63;51.13
56600;BME280;51832;48.152;11.530;2023-03-15T17:20:02;95622.44;;;8.27;51.51
56600;BME280;51832;48.152;11.530;2023-03-15T17:25:09;95631.09;;;8.60;51.23
56600;BME280;51832;48.152;11.530;2023-03-15T17:35:17;95636.75;;;8.24;52.87
56600;BME280;51832;48.152;11.530;2023-03-15T17:45:24;95637.38;;;8.19;53.52
56600;BME280;51832;48.152;11.530;2023-03-15T17:50:27;95644.63;;;8.57;53.08
56600;BME280;51832;48.152;11.530;2023-03-15T17:55:30;95645.81;;;8.15;54.81
56600;BME280;51832;48.152;11.530;2023-03-15T18:00:33;95647.25;;;8.31;54.38
56600;BME280;51832;48.152;11.530;2023-03-15T18:05:34;95647.44;;;8.55;53.30
56600;BME280;51832;48.152;11.530;2023-03-15T18:10:36;95660.75;;;8.34;54.10
56600;BME280;51832;48.152;11.530;2023-03-15T18:15:37;95669.81;;;8.05;54.52
56600;BME280;51832;48.152;11.530;2023-03-15T18:20:37;95671.22;;;8.08;55.05
56600;BME280;51832;48.152;11.530;2023-03-15T18:25:38;95684.06;;;7.83;55.60
56600;BME280;51832;48.152;11.530;2023-03-15T18:30:38;95692.38;;;8.00;55.49
56600;BME280;51832;48.152;11.530;2023-03-15T18:35:39;95697.41;;;7.88;55.52
56600;BME280;51832;48.152;11.530;2023-03-15T18:40:39;95708.66;;;7.21;58.46
56600;BME280;51832;48.152;11.530;2023-03-15T18:45:40;95701.41;;;7.84;57.93
56600;BME280;51832;48.152;11.530;2023-03-15T18:50:41;95713.25;;;7.67;58.47
56600;BME280;51832;48.152;11.530;2023-03-15T18:55:42;95729.00;;;7.26;60.11
56600;BME280;51832;48.152;11.530;2023-03-15T19:00:43;95722.34;;;7.23;60.64
56600;BME280;51832;48.152;11.530;2023-03-15T19:05:44;95724.66;;;7.05;61.91
56600;BME280;51832;48.152;11.530;2023-03-15T19:10:44;95732.00;;;7.23;61.54
56600;BME280;51832;48.152;11.530;2023-03-15T19:15:46;95731.72;;;7.11;62.28
56600;BME280;51832;48.152;11.530;2023-03-15T19:20:47;95734.75;;;7.49;61.74
56600;BME280;51832;48.152;11.530;2023-03-15T19:25:47;95736.94;;;7.45;61.94
56600;BME280;51832;48.152;11.530;2023-03-15T19:30:48;95733.31;;;7.05;62.92
56600;BME280;51832;48.152;11.530;2023-03-15T19:35:48;95743.69;;;7.27;62.75
56600;BME280;51832;48.152;11.530;2023-03-15T19:40:49;95738.44;;;7.20;63.01
56600;BME280;51832;48.152;11.530;2023-03-15T19:45:54;95746.59;;;7.04;64.15
56600;BME280;51832;48.152;11.530;2023-03-15T19:50:54;95758.34;;;6.87;64.75
56600;BME280;51832;48.152;11.530;2023-03-15T19:55:55;95763.91;;;6.77;65.06
56600;BME280;51832;48.152;11.530;2023-03-15T20:00:55;95763.00;;;6.91;64.85
56600;BME280;51832;48.152;11.530;2023-03-15T20:06:05;95768.28;;;6.70;65.60
56600;BME280;51832;48.152;11.530;2023-03-15T20:11:07;95759.88;;;7.02;63.62
56600;BME280;51832;48.152;11.530;2023-03-15T20:16:07;95766.81;;;6.89;64.31
56600;BME280;51832;48.152;11.530;2023-03-15T20:21:08;95774.00;;;6.80;65.49
56600;BME280;51832;48.152;11.530;2023-03-15T20:26:11;95788.97;;;6.65;65.39
56600;BME280;51832;48.152;11.530;2023-03-15T20:31:14;95787.00;;;6.95;65.50
56600;BME280;51832;48.152;11.530;2023-03-15T20:36:16;95793.84;;;6.96;65.18
56600;BME280;51832;48.152;11.530;2023-03-15T20:41:16;95801.41;;;6.63;66.48
56600;BME280;51832;48.152;11.530;2023-03-15T20:46:17;95807.91;;;6.67;65.91
56600;BME280;51832;48.152;11.530;2023-03-15T20:51:19;95801.38;;;6.35;67.68
56600;BME280;51832;48.152;11.530;2023-03-15T20:56:20;95802.38;;;6.34;67.45
56600;BME280;51832;48.152;11.530;2023-03-15T21:01:21;95816.47;;;6.82;66.47
56600;BME280;51832;48.152;11.530;2023-03-15T21:06:21;95818.22;;;6.75;65.83
56600;BME280;51832;48.152;11.530;2023-03-15T21:11:22;95817.28;;;6.61;67.25
56600;BME280;51832;48.152;11.530;2023-03-15T21:16:22;95810.00;;;6.78;66.38
56600;BME280;51832;48.152;11.530;2023-03-15T21:21:23;95807.13;;;6.73;66.52
56600;BME280;51832;48.152;11.530;2023-03-15T21:26:23;95809.66;;;6.88;66.52
56600;BME280;51832;48.152;11.530;2023-03-15T21:31:23;95805.97;;;6.54;68.02
56600;BME280;51832;48.152;11.530;2023-03-15T21:36:24;95804.25;;;6.89;67.16
56600;BME280;51832;48.152;11.530;2023-03-15T21:41:24;95818.59;;;7.00;66.62
56600;BME280;51832;48.152;11.530;2023-03-15T21:46:25;95817.78;;;6.99;66.54
56600;BME280;51832;48.152;11.530;2023-03-15T21:51:25;95818.94;;;7.18;65.30
56600;BME280;51832;48.152;11.530;2023-03-15T21:56:26;95826.44;;;7.28;65.89
56600;BME280;51832;48.152;11.530;2023-03-15T22:01:27;95817.41;;;7.02;66.49
56600;BME280;51832;48.152;11.530;2023-03-15T22:06:27;95811.72;;;6.92;66.20
56600;BME280;51832;48.152;11.530;2023-03-15T22:11:28;95804.81;;;7.12;65.95
56600;BME280;51832;48.152;11.530;2023-03-15T22:16:28;95821.81;;;7.23;65.75
56600;BME280;51832;48.152;11.530;2023-03-15T22:21:29;95816.28;;;7.11;65.90
56600;BME280;51832;48.152;11.530;2023-03-15T22:26:30;95810.47;;;7.16;65.14
56600;BME280;51832;48.152;11.530;2023-03-15T22:31:30;95809.75;;;7.01;66.52
56600;BME280;51832;48.152;11.530;2023-03-15T22:36:31;95808.31;;;6.98;66.49
56600;BME280;51832;48.152;11.530;2023-03-15T22:41:34;95830.59;;;7.16;65.39
56600;BME280;51832;48.152;11.530;2023-03-15T22:46:35;95813.72;;;7.18;65.90
56600;BME280;51832;48.152;11.530;2023-03-15T22:51:35;95828.31;;;6.78;66.82
56600;BME280;51832;48.152;11.530;2023-03-15T22:56:38;95820.78;;;6.68;66.53
56600;BME280;51832;48.152;11.530;2023-03-15T23:01:39;95815.72;;;6.88;66.55
56600;BME280;51832;48.152;11.530;2023-03-15T23:06:40;95823.56;;;6.88;66.98
56600;BME280;51832;48.152;11.530;2023-03-15T23:11:40;95823.91;;;6.85;67.02
56600;BME280;51832;48.152;11.530;2023-03-15T23:16:40;95817.06;;;6.84;67.63
56600;BME280;51832;48.152;11.530;2023-03-15T23:21:41;95824.53;;;7.08;68.00
56600;BME280;51832;48.152;11.530;2023-03-15T23:26:42;95828.50;;;7.04;66.60
56600;BME280;51832;48.152;11.530;2023-03-15T23:31:43;95838.81;;;7.40;65.82
56600;BME280;51832;48.152;11.530;2023-03-15T23:36:43;95842.13;;;7.56;65.10
56600;BME280;51832;48.152;11.530;2023-03-15T23:41:44;95839.56;;;7.69;64.19
56600;BME280;51832;48.152;11.530;2023-03-15T23:46:44;95832.09;;;7.66;64.05
56600;BME280;51832;48.152;11.530;2023-03-15T23:51:45;95832.53;;;7.69;64.15
56600;BME280;51832;48.152;11.530;2023-03-15T23:56:45;95830.91;;;7.68;64.23
